Time;durP1;ratioP1;P1;durP2;ratioP2;P2;SDS_P1;SDS_P2;PMS_P1;PMS_P2;Temp;Humidity;BMP_temperature;BMP_pressure;BME280_temperature;BME280_humidity;BME280_pressure;Samples;Min_cycle;Max_cycle;Signal;HPM_P1;HPM_P2
2021/12/02 00:02:00;;;;;;;4.18;0.80;;;;;;;5.17;78.68;97796.16;5027839;28;20038;-71
2021/12/02 00:04:27;;;;;;;3.13;0.90;;;;;;;5.15;78.95;97811.03;5029543;28;20033;-72
2021/12/02 00:06:53;;;;;;;3.40;0.93;;;;;;;5.12;78.65;97817.34;5029097;28;20040;-72
2021/12/02 00:09:19;;;;;;;3.42;1.08;;;;;;;5.20;77.76;97825.31;5030007;28;20465;-71
2021/12/02 00:11:44;;;;;;;4.55;1.25;;;;;;;5.18;77.64;97813.38;5029482;28;20053;-71
2021/12/02 00:14:10;;;;;;;4.35;1.13;;;;;;;5.19;77.87;97821.06;5029649;28;20529;-71
2021/12/02 00:16:40;;;;;;;1.92;1.00;;;;;;;5.24;76.19;97820.66;5029629;28;20045;-71
2021/12/02 00:21:53;;;;;;;6.18;1.10;;;;;;;5.24;75.93;97816.28;5028471;28;20036;-71
2021/12/02 00:24:22;;;;;;;4.07;0.98;;;;;;;5.24;75.81;97825.88;5029408;28;20410;-72
2021/12/02 00:26:49;;;;;;;5.10;1.00;;;;;;;5.26;75.11;97813.56;5029981;28;20037;-72
2021/12/02 00:29:18;;;;;;;7.10;1.38;;;;;;;5.23;75.18;97827.66;5029778;28;20033;-73
2021/12/02 00:31:45;;;;;;;3.45;0.80;;;;;;;5.15;75.31;97817.06;5026851;28;20041;-72
2021/12/02 00:34:10;;;;;;;2.22;1.10;;;;;;;5.14;75.59;97820.63;5028141;28;20513;-72
2021/12/02 00:36:37;;;;;;;2.92;0.80;;;;;;;5.20;74.76;97822.72;5030467;28;20120;-72
2021/12/02 00:39:10;;;;;;;2.80;1.00;;;;;;;5.27;74.78;97854.19;5029187;28;20052;-73
2021/12/02 00:41:35;;;;;;;5.53;1.10;;;;;;;5.27;74.82;97838.59;5027864;28;20037;-72
2021/12/02 00:44:01;;;;;;;5.65;1.55;;;;;;;5.25;75.17;97843.09;5030343;28;20418;-73
2021/12/02 00:46:31;;;;;;;6.45;1.08;;;;;;;5.28;75.05;97842.84;5029060;28;20045;-72
2021/12/02 00:49:01;;;;;;;4.82;1.25;;;;;;;5.33;74.45;97857.06;5027314;28;20033;-72
2021/12/02 00:51:26;;;;;;;6.65;1.13;;;;;;;5.32;74.69;97841.63;5024967;28;20122;-72
2021/12/02 00:53:53;;;;;;;3.90;0.93;;;;;;;5.33;74.94;97849.28;5028908;28;21085;-72
2021/12/02 00:56:22;;;;;;;5.32;1.10;;;;;;;5.36;74.46;97873.38;5028552;28;20465;-72
2021/12/02 00:58:49;;;;;;;4.88;1.00;;;;;;;5.38;74.22;97846.31;5027154;28;20033;-72
2021/12/02 01:01:16;;;;;;;6.25;1.10;;;;;;;5.40;74.19;97857.38;5022848;28;20088;-72
2021/12/02 01:03:43;;;;;;;4.72;1.85;;;;;;;5.39;74.55;97870.50;5028299;28;20041;-72
2021/12/02 01:06:08;;;;;;;3.97;1.00;;;;;;;5.37;75.26;97862.81;5029050;28;20056;-71
2021/12/02 01:08:35;;;;;;;7.18;1.00;;;;;;;5.33;75.13;97853.66;5023539;28;20072;-71
2021/12/02 01:11:04;;;;;;;4.45;1.27;;;;;;;5.31;74.62;97868.56;5027296;28;20026;-71
2021/12/02 01:13:30;;;;;;;7.07;1.30;;;;;;;5.32;74.33;97871.03;5027050;28;20032;-70
2021/12/02 01:15:55;;;;;;;4.18;1.40;;;;;;;5.32;74.22;97870.19;5028322;28;20037;-71
2021/12/02 01:18:21;;;;;;;5.25;1.33;;;;;;;5.31;74.08;97847.78;5028916;28;20512;-71
2021/12/02 01:20:49;;;;;;;3.67;1.20;;;;;;;5.31;73.82;97852.97;5029077;28;20017;-71
2021/12/02 01:23:16;;;;;;;5.93;0.85;;;;;;;5.26;74.18;97842.94;5024945;28;20025;-71
2021/12/02 01:25:49;;;;;;;7.57;1.50;;;;;;;5.25;74.19;97856.91;5025974;28;20045;-71
2021/12/02 01:28:16;;;;;;;8.90;1.00;;;;;;;5.27;74.28;97856.78;5024391;28;20120;-70
2021/12/02 01:30:42;;;;;;;4.57;1.10;;;;;;;5.28;74.21;97858.44;5025945;28;20033;-70
2021/12/02 01:33:07;;;;;;;4.18;1.20;;;;;;;5.31;73.77;97865.97;5028585;28;20029;-71
2021/12/02 01:35:34;;;;;;;4.85;1.65;;;;;;;5.32;73.42;97870.19;5023501;28;20033;-71
2021/12/02 01:38:00;;;;;;;2.70;1.00;;;;;;;5.31;74.09;97876.34;5028420;28;20040;-72
2021/12/02 01:40:26;;;;;;;7.35;1.58;;;;;;;5.33;73.54;97877.84;5026642;28;20025;-72
2021/12/02 01:42:58;;;;;;;6.72;1.10;;;;;;;5.35;73.75;97890.72;5034688;28;20030;-72
2021/12/02 01:45:26;;;;;;;6.10;1.15;;;;;;;5.35;73.77;97890.72;5033444;28;20379;-72
2021/12/02 01:47:53;;;;;;;6.88;1.20;;;;;;;5.33;74.12;97890.03;5035267;28;20040;-72
2021/12/02 01:50:22;;;;;;;2.53;0.90;;;;;;;5.31;74.49;97886.75;5034719;28;20033;-72
2021/12/02 01:52:58;;;;;;;2.65;1.27;;;;;;;5.30;74.58;97893.72;5034123;28;20045;-71
2021/12/02 01:55:25;;;;;;;8.95;1.33;;;;;;;5.25;75.05;97882.06;5034640;28;20083;-71
2021/12/02 01:58:00;;;;;;;6.72;1.00;;;;;;;5.21;75.00;97888.47;5034430;28;20033;-72
2021/12/02 02:00:42;;;;;;;3.15;1.10;;;;;;;5.18;75.46;97892.13;5036861;28;20022;-73
2021/12/02 02:03:09;;;;;;;3.40;1.17;;;;;;;5.18;75.24;97899.94;5029446;28;20438;-72
2021/12/02 02:05:35;;;;;;;10.57;1.73;;;;;;;5.14;75.33;97893.34;5034609;28;20033;-72
2021/12/02 02:08:10;;;;;;;1.85;0.85;;;;;;;5.12;74.85;97895.25;5032345;28;20034;-72
2021/12/02 02:10:39;;;;;;;7.35;1.25;;;;;;;5.12;74.73;97902.19;5033024;28;20148;-74
2021/12/02 02:13:09;;;;;;;6.25;0.85;;;;;;;5.06;74.90;97901.78;5034599;28;20040;-75
2021/12/02 02:15:40;;;;;;;6.13;1.20;;;;;;;4.99;75.64;97900.63;5034284;28;20036;-73
2021/12/02 02:18:12;;;;;;;8.00;1.95;;;;;;;4.94;75.56;97891.59;5033655;28;20545;-72
2021/12/02 02:20:57;;;;;;;5.40;1.10;;;;;;;4.88;75.19;97900.69;5034372;28;20068;-72
2021/12/02 02:23:24;;;;;;;5.10;1.25;;;;;;;4.83;75.37;97910.63;5029481;28;20029;-72
2021/12/02 02:25:50;;;;;;;7.45;1.55;;;;;;;4.83;74.91;97910.63;5034388;28;20057;-72
2021/12/02 02:28:15;;;;;;;8.73;1.38;;;;;;;4.77;75.26;97904.16;5030818;28;20060;-72
2021/12/02 02:30:41;;;;;;;6.35;1.40;;;;;;;4.73;75.33;97905.38;5032343;28;20490;-70
2021/12/02 02:33:07;;;;;;;4.35;1.38;;;;;;;4.68;75.42;97906.69;5035165;28;20021;-74
2021/12/02 02:35:33;;;;;;;5.93;1.13;;;;;;;4.68;75.70;97927.47;5035556;28;20036;-72
2021/12/02 02:38:00;;;;;;;10.10;2.08;;;;;;;4.67;75.80;97918.00;5035539;28;20029;-72
2021/12/02 02:40:25;;;;;;;6.45;1.15;;;;;;;4.65;76.07;97919.91;5036561;28;20033;-71
2021/12/02 02:42:57;;;;;;;2.78;1.10;;;;;;;4.62;76.23;97926.19;5034857;28;20037;-71
2021/12/02 02:45:23;;;;;;;11.05;1.70;;;;;;;4.66;75.89;97940.53;5033340;28;20497;-72
2021/12/02 02:47:48;;;;;;;8.60;1.20;;;;;;;4.68;75.90;97943.84;5035107;28;20021;-72
2021/12/02 02:50:15;;;;;;;6.63;2.08;;;;;;;4.71;76.16;97948.81;5034477;28;20371;-73
2021/12/02 02:52:41;;;;;;;7.50;1.42;;;;;;;4.72;75.91;97939.25;5030773;28;20041;-73
2021/12/02 02:55:07;;;;;;;9.43;1.33;;;;;;;4.67;76.24;97933.59;5029760;28;20063;-73
2021/12/02 02:57:42;;;;;;;5.88;1.70;;;;;;;4.61;76.93;97943.53;5031231;28;20156;-72
2021/12/02 03:00:12;;;;;;;3.90;1.38;;;;;;;4.59;76.64;97935.03;5028872;28;20596;-73
2021/12/02 03:05:28;;;;;;;5.63;1.10;;;;;;;4.55;76.18;97945.78;5031133;28;20026;-72
2021/12/02 03:07:58;;;;;;;5.18;1.27;;;;;;;4.56;76.01;97955.19;5030358;28;20021;-72
2021/12/02 03:17:47;;;;;;;5.85;1.00;;;;;;;4.69;75.34;97955.88;5031443;28;20028;-72
2021/12/02 03:20:13;;;;;;;8.63;1.52;;;;;;;4.69;75.09;97963.66;5029822;28;20037;-71
2021/12/02 03:22:39;;;;;;;6.55;1.20;;;;;;;4.71;74.64;97981.69;5030253;28;20487;-72
2021/12/02 03:25:06;;;;;;;3.40;1.35;;;;;;;4.70;74.95;97970.50;5030391;28;20079;-72
2021/12/02 03:27:32;;;;;;;4.90;1.17;;;;;;;4.66;74.70;97974.28;5029668;28;20029;-71
2021/12/02 03:29:57;;;;;;;2.35;0.90;;;;;;;4.65;74.97;97970.06;5029627;28;20029;-72
2021/12/02 03:32:22;;;;;;;4.57;1.20;;;;;;;4.61;74.44;97985.03;5030479;28;20061;-72
2021/12/02 03:34:48;;;;;;;5.35;1.30;;;;;;;4.63;74.55;97984.09;5030413;28;20048;-72
2021/12/02 03:37:14;;;;;;;5.40;1.35;;;;;;;4.61;74.36;97999.78;5026025;28;20271;-72
2021/12/02 03:39:39;;;;;;;7.10;1.02;;;;;;;4.58;75.67;98000.84;5030507;28;20034;-71
2021/12/02 03:42:05;;;;;;;9.52;2.15;;;;;;;4.45;78.61;98018.34;5029304;28;20529;-72
2021/12/02 03:44:31;;;;;;;3.75;1.10;;;;;;;4.01;83.25;98068.47;5029487;28;20025;-71
2021/12/02 03:46:56;;;;;;;11.30;1.90;;;;;;;3.64;83.79;98051.31;5029382;28;20057;-73
2021/12/02 03:49:22;;;;;;;6.65;1.67;;;;;;;3.48;83.54;98044.78;5030241;28;20049;-71
2021/12/02 03:51:48;;;;;;;4.68;1.20;;;;;;;3.32;84.74;98060.63;5029621;28;20677;-73
2021/12/02 03:54:13;;;;;;;4.03;1.00;;;;;;;3.10;85.07;98031.13;5030633;28;20479;-72
2021/12/02 03:56:39;;;;;;;4.70;1.00;;;;;;;2.99;86.25;98035.44;5029671;28;20038;-72
2021/12/02 03:59:04;;;;;;;7.65;1.33;;;;;;;2.93;87.44;98021.19;5030059;28;20039;-72
2021/12/02 04:01:30;;;;;;;1.27;0.70;;;;;;;2.87;86.76;98017.28;5030743;28;20036;-72
2021/12/02 04:03:55;;;;;;;5.15;1.17;;;;;;;2.91;85.74;98030.81;5048402;22;20314;-68
2021/12/02 04:06:21;;;;;;;4.63;1.10;;;;;;;2.88;86.82;98025.84;5033171;28;20044;-67
2021/12/02 04:08:51;;;;;;;8.63;1.40;;;;;;;2.91;86.05;98030.81;5029747;28;20457;-67
2021/12/02 04:11:33;;;;;;;4.97;0.95;;;;;;;2.96;85.81;98030.47;5030323;28;20026;-67
2021/12/02 04:14:15;;;;;;;5.97;1.40;;;;;;;2.98;86.05;98037.22;5035199;28;20120;-66
2021/12/02 04:16:50;;;;;;;8.35;1.30;;;;;;;3.01;86.46;98029.22;5027959;28;20784;-66
2021/12/02 04:19:16;;;;;;;12.50;1.40;;;;;;;3.04;86.17;98029.00;5030086;28;20033;-68
2021/12/02 04:21:41;;;;;;;4.80;1.17;;;;;;;3.10;85.50;98038.06;5022782;28;20531;-67
2021/12/02 04:24:06;;;;;;;6.25;1.35;;;;;;;3.12;84.84;98047.38;5032026;28;20017;-67
2021/12/02 04:26:32;;;;;;;7.22;1.35;;;;;;;3.14;84.38;98042.91;5031785;28;20029;-66
2021/12/02 04:28:57;;;;;;;7.40;1.10;;;;;;;3.10;85.11;98030.31;5029510;28;20486;-68
2021/12/02 04:31:22;;;;;;;5.35;1.30;;;;;;;3.17;83.67;98039.28;5025892;28;20029;-68
2021/12/02 04:33:47;;;;;;;9.70;2.00;;;;;;;3.24;82.35;98039.66;5028837;28;20124;-68
2021/12/02 04:36:13;;;;;;;3.92;1.25;;;;;;;3.30;81.88;98045.22;5033751;28;20022;-69
2021/12/02 04:38:38;;;;;;;8.63;1.55;;;;;;;3.27;81.57;98048.03;5028190;28;20041;-68
2021/12/02 04:41:04;;;;;;;9.15;1.75;;;;;;;3.26;81.23;98048.13;5029738;28;20033;-67
2021/12/02 04:43:29;;;;;;;5.50;1.55;;;;;;;3.25;80.24;98055.06;5033209;28;20312;-68
2021/12/02 04:45:55;;;;;;;6.22;1.67;;;;;;;3.21;80.34;98060.59;5032842;28;20060;-68
2021/12/02 04:48:22;;;;;;;4.05;1.33;;;;;;;3.27;78.81;98070.53;5036774;28;20036;-66
2021/12/02 04:50:48;;;;;;;9.65;1.58;;;;;;;3.32;78.40;98065.81;5030695;28;20025;-67
2021/12/02 04:53:13;;;;;;;5.75;1.02;;;;;;;3.30;78.55;98063.34;5029928;28;20025;-67
2021/12/02 04:55:40;;;;;;;4.60;1.50;;;;;;;3.28;78.21;98070.41;5038081;28;20091;-68
2021/12/02 04:58:05;;;;;;;6.03;1.88;;;;;;;3.27;78.33;98068.75;5030103;28;20025;-66
2021/12/02 05:00:31;;;;;;;7.15;1.48;;;;;;;3.23;78.94;98071.69;5034070;28;20013;-67
2021/12/02 05:02:57;;;;;;;5.35;1.00;;;;;;;3.25;78.39;98062.84;5031262;28;20044;-67
2021/12/02 05:05:23;;;;;;;5.65;1.05;;;;;;;3.36;78.28;98077.59;5030676;28;20041;-67
2021/12/02 05:07:52;;;;;;;5.70;1.35;;;;;;;3.28;79.07;98077.34;5029760;28;20425;-67
2021/12/02 05:10:18;;;;;;;5.65;1.10;;;;;;;3.22;79.27;98078.59;5030161;28;20034;-68
2021/12/02 05:12:43;;;;;;;4.35;1.20;;;;;;;3.21;79.87;98086.50;5033610;28;20037;-67
2021/12/02 05:15:09;;;;;;;7.57;1.40;;;;;;;3.11;80.25;98087.13;5033842;28;20064;-66
2021/12/02 05:17:34;;;;;;;6.38;0.88;;;;;;;3.10;80.12;98080.31;5022838;28;20124;-65
2021/12/02 05:19:59;;;;;;;6.28;1.02;;;;;;;3.07;80.57;98096.06;5029456;28;20064;-67
2021/12/02 05:22:24;;;;;;;6.07;1.10;;;;;;;3.03;80.67;98102.41;5034827;28;20037;-65
2021/12/02 05:24:50;;;;;;;6.80;1.20;;;;;;;2.98;80.87;98090.75;5034898;28;20101;-66
2021/12/02 05:27:15;;;;;;;6.20;1.30;;;;;;;2.95;81.54;98099.53;5037031;28;20022;-67
2021/12/02 05:29:41;;;;;;;6.32;1.27;;;;;;;2.93;81.17;98101.44;5033314;28;20678;-67
2021/12/02 05:32:06;;;;;;;1.75;1.00;;;;;;;2.92;81.30;98112.69;5030629;28;20041;-68
2021/12/02 05:34:32;;;;;;;3.33;1.10;;;;;;;2.92;80.88;98116.09;5037881;28;20041;-67
2021/12/02 05:36:58;;;;;;;8.00;1.50;;;;;;;2.92;81.14;98123.88;5026839;28;20037;-69
2021/12/02 05:39:23;;;;;;;7.25;1.08;;;;;;;2.95;80.99;98120.25;5039824;28;20493;-69
2021/12/02 05:41:53;;;;;;;4.57;1.40;;;;;;;2.96;81.32;98126.25;5028419;28;20027;-65
2021/12/02 05:44:18;;;;;;;8.02;1.33;;;;;;;2.93;81.29;98132.47;5030348;28;20057;-67
2021/12/02 05:46:43;;;;;;;4.88;1.23;;;;;;;2.95;80.69;98145.31;5031416;28;20479;-67
2021/12/02 05:49:09;;;;;;;5.38;1.55;;;;;;;3.04;79.44;98132.56;5035579;28;20423;-65
2021/12/02 05:51:34;;;;;;;7.05;1.38;;;;;;;3.10;79.00;98126.91;5025254;28;20037;-67
2021/12/02 05:53:59;;;;;;;10.27;1.77;;;;;;;3.11;79.00;98138.91;5037122;28;20013;-67
2021/12/02 05:56:24;;;;;;;7.22;1.90;;;;;;;3.09;79.12;98150.34;5033412;28;20075;-68
2021/12/02 05:58:50;;;;;;;9.30;1.50;;;;;;;3.08;78.97;98141.75;5033058;28;20029;-66
2021/12/02 06:01:15;;;;;;;8.82;1.33;;;;;;;3.07;78.97;98134.91;5033364;28;20228;-70
2021/12/02 06:03:40;;;;;;;7.18;1.50;;;;;;;3.04;79.27;98135.13;5029588;28;20044;-66
2021/12/02 06:06:06;;;;;;;3.25;1.35;;;;;;;3.08;79.08;98131.41;5031839;28;20029;-66
2021/12/02 06:08:32;;;;;;;6.97;1.50;;;;;;;3.09;79.33;98135.63;5023211;28;20037;-66
2021/12/02 06:10:58;;;;;;;7.32;2.10;;;;;;;3.07;79.71;98137.47;5027574;28;20088;-68
2021/12/02 06:13:25;;;;;;;13.73;2.20;;;;;;;3.08;79.78;98141.75;5030966;28;20029;-66
2021/12/02 06:15:51;;;;;;;10.73;2.15;;;;;;;3.06;79.79;98143.59;5028779;28;20404;-66
2021/12/02 06:18:16;;;;;;;7.97;1.48;;;;;;;3.11;79.31;98146.69;5033000;28;20097;-68
2021/12/02 06:20:41;;;;;;;7.63;1.52;;;;;;;3.14;79.60;98136.13;5028025;28;20049;-69
2021/12/02 06:23:07;;;;;;;6.43;1.35;;;;;;;3.18;79.29;98154.84;5027801;28;20120;-68
2021/12/02 06:27:57;;;;;;;7.97;1.60;;;;;;;3.17;79.18;98145.44;5039823;28;20549;-70
2021/12/02 06:30:25;;;;;;;7.82;1.55;;;;;;;3.13;79.48;98147.41;5037373;28;20034;-69
2021/12/02 06:32:50;;;;;;;7.85;2.00;;;;;;;3.11;79.47;98128.56;5034573;28;20017;-68
2021/12/02 06:35:16;;;;;;;2.85;1.00;;;;;;;3.13;79.14;98133.66;5031770;28;20043;-68
2021/12/02 06:37:43;;;;;;;9.82;1.83;;;;;;;3.12;79.81;98142.34;5031237;28;20623;-67
2021/12/02 06:40:09;;;;;;;8.75;1.48;;;;;;;3.11;80.29;98151.03;5037117;28;20029;-68
2021/12/02 06:42:34;;;;;;;4.03;1.40;;;;;;;3.11;80.08;98151.88;5036779;28;20049;-69
2021/12/02 06:45:00;;;;;;;11.90;1.80;;;;;;;3.13;80.38;98159.53;5034598;28;20055;-66
2021/12/02 06:47:31;;;;;;;9.05;1.58;;;;;;;3.13;79.74;98164.72;5038480;28;20091;-67
2021/12/02 06:49:59;;;;;;;8.10;1.63;;;;;;;3.13;80.13;98175.91;5032214;28;20086;-69
2021/12/02 06:52:27;;;;;;;6.97;1.40;;;;;;;3.14;80.08;98176.72;5038481;28;20075;-68
2021/12/02 06:54:53;;;;;;;6.35;1.48;;;;;;;3.10;79.99;98183.88;5031340;28;20072;-68
2021/12/02 06:57:18;;;;;;;11.30;2.22;;;;;;;3.08;80.13;98183.16;5038201;28;20036;-68
2021/12/02 06:59:43;;;;;;;11.43;2.05;;;;;;;3.06;79.75;98191.97;5032433;28;20034;-69
2021/12/02 07:02:09;;;;;;;9.32;2.15;;;;;;;3.05;80.13;98192.91;5035273;28;20485;-70
2021/12/02 07:04:34;;;;;;;11.00;1.98;;;;;;;3.01;80.33;98188.88;5032043;28;20045;-68
2021/12/02 07:06:59;;;;;;;10.25;1.35;;;;;;;3.01;80.13;98197.47;5033216;28;20116;-69
2021/12/02 07:09:25;;;;;;;10.45;2.03;;;;;;;2.99;79.26;98196.75;5037566;28;20017;-65
2021/12/02 07:11:50;;;;;;;10.30;1.60;;;;;;;3.04;78.24;98197.25;5030673;28;20036;-68
2021/12/02 07:14:17;;;;;;;7.43;1.48;;;;;;;3.06;78.11;98213.50;5030861;28;20034;-67
2021/12/02 07:16:43;;;;;;;6.95;1.52;;;;;;;3.10;77.64;98208.94;5029279;28;20164;-69
2021/12/02 07:19:09;;;;;;;6.05;1.55;;;;;;;3.11;76.96;98215.75;5031392;28;20503;-70
2021/12/02 07:21:38;;;;;;;7.90;1.58;;;;;;;3.13;77.17;98224.25;5045536;28;20033;-66
2021/12/02 07:24:04;;;;;;;11.07;1.80;;;;;;;3.10;77.59;98221.88;5030951;28;20029;-67
2021/12/02 07:26:34;;;;;;;15.07;1.77;;;;;;;3.09;77.38;98225.41;5031145;28;20036;-68
2021/12/02 07:29:00;;;;;;;4.78;1.42;;;;;;;3.12;77.25;98230.38;5028576;28;20034;-68
2021/12/02 07:31:34;;;;;;;4.97;1.55;;;;;;;3.15;76.62;98222.38;5032281;28;20040;-67
2021/12/02 07:34:02;;;;;;;6.70;1.70;;;;;;;3.20;76.88;98222.91;5033821;28;20029;-69
2021/12/02 07:36:29;;;;;;;;;;;;;;;3.26;76.15;98222.44;5030646;28;20051;-68
2021/12/02 07:38:55;;;;;;;8.25;1.30;;;;;;;3.24;75.82;98224.34;5032579;28;19905;-67
2021/12/02 07:41:21;;;;;;;8.82;1.73;;;;;;;3.27;75.69;98226.72;5030234;28;20096;-66
2021/12/02 07:43:46;;;;;;;11.80;2.00;;;;;;;3.33;75.54;98226.25;5029366;28;20037;-68
2021/12/02 07:46:11;;;;;;;8.35;1.90;;;;;;;3.35;75.87;98231.34;5029897;28;20057;-68
2021/12/02 07:48:37;;;;;;;7.85;1.63;;;;;;;3.39;75.59;98230.19;5034843;28;20030;-69
2021/12/02 07:51:08;;;;;;;7.93;1.50;;;;;;;3.42;75.50;98237.75;5031123;28;20023;-67
2021/12/02 07:53:34;;;;;;;4.18;1.25;;;;;;;3.45;74.83;98242.72;5034954;28;20043;-66
2021/12/02 07:56:07;;;;;;;10.85;2.38;;;;;;;3.44;75.58;98240.22;5032208;28;20589;-69
2021/12/02 07:58:34;;;;;;;19.20;2.38;;;;;;;3.42;76.07;98247.28;5031398;28;20063;-69
2021/12/02 08:01:02;;;;;;;7.20;1.98;;;;;;;3.39;76.03;98258.69;5034536;28;20076;-68
2021/12/02 08:03:29;;;;;;;16.40;2.50;;;;;;;3.38;76.24;98257.88;5033598;28;20017;-69
2021/12/02 08:05:55;;;;;;;12.77;2.10;;;;;;;3.40;76.22;98260.34;5036747;28;20093;-69
2021/12/02 08:08:20;;;;;;;9.25;2.05;;;;;;;3.38;76.45;98263.06;5029323;28;20223;-68
2021/12/02 08:10:46;;;;;;;9.77;1.88;;;;;;;3.37;76.31;98258.81;5031725;28;20064;-69
2021/12/02 08:13:13;;;;;;;6.47;1.40;;;;;;;3.35;76.51;98259.84;5038561;28;20033;-68
2021/12/02 08:15:41;;;;;;;7.78;1.70;;;;;;;3.34;76.79;98265.97;5032906;28;21237;-69
2021/12/02 08:18:07;;;;;;;13.70;2.28;;;;;;;3.33;76.51;98272.06;5035294;28;20533;-69
2021/12/02 08:20:36;;;;;;;6.55;1.40;;;;;;;3.35;77.06;98270.22;5030105;28;20033;-68
2021/12/02 08:23:02;;;;;;;;;;;;;;;3.34;77.14;98289.28;5024119;28;20087;-69
2021/12/02 08:25:28;;;;;;;6.00;1.33;;;;;;;3.32;77.08;98281.59;5034568;28;19913;-68
2021/12/02 08:27:56;;;;;;;8.40;1.52;;;;;;;3.32;76.38;98298.91;5030043;28;20021;-69
2021/12/02 08:30:25;;;;;;;8.57;1.80;;;;;;;3.28;77.58;98298.28;5029653;28;20056;-68
2021/12/02 08:32:52;;;;;;;17.35;2.03;;;;;;;3.29;76.85;98301.69;5031138;28;20105;-69
2021/12/02 08:35:18;;;;;;;8.63;1.58;;;;;;;3.28;76.60;98305.22;5029451;28;20541;-69
2021/12/02 08:37:45;;;;;;;14.68;1.90;;;;;;;3.30;76.65;98311.97;5034357;28;20120;-69
2021/12/02 08:40:17;;;;;;;9.13;1.60;;;;;;;3.30;76.90;98311.97;5035801;28;20025;-69
2021/12/02 08:42:43;;;;;;;9.23;1.70;;;;;;;3.29;77.32;98314.66;5035491;28;20067;-68
2021/12/02 08:45:09;;;;;;;8.45;2.00;;;;;;;3.30;76.62;98318.88;5029509;28;20090;-69
2021/12/02 08:47:42;;;;;;;10.02;2.10;;;;;;;3.38;76.61;98332.16;5038463;28;20525;-68
2021/12/02 08:50:08;;;;;;;13.95;2.13;;;;;;;3.41;76.64;98326.75;5027412;28;20481;-69
2021/12/02 08:52:33;;;;;;;6.40;1.95;;;;;;;3.44;76.31;98344.66;5027621;28;20491;-68
2021/12/02 08:54:59;;;;;;;10.43;1.88;;;;;;;3.48;75.81;98340.94;5029126;28;20086;-67
2021/12/02 08:57:24;;;;;;;8.45;1.65;;;;;;;3.52;75.72;98337.22;5028759;28;20020;-68
2021/12/02 08:59:50;;;;;;;7.20;1.75;;;;;;;3.56;75.06;98333.47;5029886;28;20029;-71
2021/12/02 09:02:16;;;;;;;11.48;1.90;;;;;;;3.63;75.16;98347.66;5029208;28;20602;-70
2021/12/02 09:04:41;;;;;;;10.25;1.95;;;;;;;3.66;74.58;98341.41;5033522;28;20045;-68
2021/12/02 09:07:07;;;;;;;7.82;1.40;;;;;;;3.69;73.81;98336.03;5025044;28;20033;-68
2021/12/02 09:09:32;;;;;;;10.52;2.25;;;;;;;3.72;74.09;98351.38;5030074;28;20060;-69
2021/12/02 09:11:58;;;;;;;7.03;1.63;;;;;;;3.75;73.78;98348.56;5023615;28;20094;-68
2021/12/02 09:14:24;;;;;;;8.63;1.52;;;;;;;3.83;72.92;98368.75;5034334;28;20041;-68
2021/12/02 09:16:51;;;;;;;8.80;2.15;;;;;;;3.89;72.30;98363.13;5028722;28;20049;-66
2021/12/02 09:19:17;;;;;;;10.35;1.63;;;;;;;3.95;72.22;98360.09;5030362;28;20040;-67
2021/12/02 09:21:42;;;;;;;5.93;1.55;;;;;;;4.02;71.89;98355.31;5030612;28;20041;-67
2021/12/02 09:24:08;;;;;;;9.88;1.98;;;;;;;4.16;70.73;98356.94;5027083;28;20017;-68
2021/12/02 09:26:33;;;;;;;9.65;1.90;;;;;;;4.22;69.70;98372.84;5034499;28;20025;-67
2021/12/02 09:28:59;;;;;;;10.40;1.70;;;;;;;4.30;70.81;98367.97;5029583;28;20053;-66
2021/12/02 09:31:24;;;;;;;7.22;1.40;;;;;;;4.43;70.08;98374.84;5031423;28;20025;-68
2021/12/02 09:33:51;;;;;;;7.82;1.67;;;;;;;4.53;69.99;98373.25;5028246;28;20037;-68
2021/12/02 09:36:16;;;;;;;10.07;1.80;;;;;;;4.47;69.52;98376.28;5029221;28;20013;-69
2021/12/02 09:38:43;;;;;;;7.63;1.70;;;;;;;4.52;69.84;98364.63;5028734;28;20042;-69
2021/12/02 09:41:08;;;;;;;11.95;2.22;;;;;;;4.50;69.75;98379.50;5031387;28;20057;-68
2021/12/02 09:43:34;;;;;;;7.90;1.67;;;;;;;4.48;70.20;98368.38;5033654;28;20518;-67
2021/12/02 09:45:59;;;;;;;12.75;1.77;;;;;;;4.45;69.34;98367.78;5014235;28;20669;-67
2021/12/02 09:48:27;;;;;;;4.85;1.40;;;;;;;4.38;68.00;98382.97;5035280;28;20022;-69
2021/12/02 09:51:06;;;;;;;8.00;1.73;;;;;;;4.32;67.92;98366.06;5028986;28;20658;-67
2021/12/02 09:53:51;;;;;;;6.93;1.60;;;;;;;4.37;67.81;98370.94;5033414;28;20033;-68
2021/12/02 09:56:37;;;;;;;6.93;1.73;;;;;;;4.38;67.70;98376.97;5032641;28;20053;-68
2021/12/02 09:59:23;;;;;;;13.48;1.60;;;;;;;4.35;67.81;98360.66;5030326;28;20040;-68
2021/12/02 10:01:51;;;;;;;9.85;1.40;;;;;;;4.35;67.61;98363.25;5031022;28;20529;-66
2021/12/02 10:04:17;;;;;;;10.00;1.58;;;;;;;4.25;67.65;98357.06;5051718;22;20446;-68
2021/12/02 10:06:43;;;;;;;11.55;1.33;;;;;;;4.18;68.23;98355.88;5044689;28;20047;-68
2021/12/02 10:09:18;;;;;;;8.02;1.60;;;;;;;4.17;68.60;98366.34;5051140;28;20021;-69
2021/12/02 10:11:52;;;;;;;10.38;1.50;;;;;;;4.08;68.33;98360.91;5048756;28;20072;-69
2021/12/02 10:14:29;;;;;;;6.05;1.40;;;;;;;4.08;68.55;98365.25;5044269;28;20549;-69
2021/12/02 10:17:09;;;;;;;7.88;1.67;;;;;;;4.16;69.46;98369.91;5048114;28;20040;-68
2021/12/02 10:19:35;;;;;;;12.80;1.38;;;;;;;4.15;66.64;98370.81;5049974;28;20048;-69
2021/12/02 10:22:07;;;;;;;8.45;1.73;;;;;;;4.18;68.44;98365.41;5043704;28;20037;-68
2021/12/02 10:24:42;;;;;;;6.32;1.17;;;;;;;4.23;68.33;98371.13;5049335;28;20096;-67
2021/12/02 10:27:09;;;;;;;6.70;1.25;;;;;;;4.38;66.82;98370.00;5050574;28;20509;-69
2021/12/02 10:29:37;;;;;;;12.20;2.30;;;;;;;4.47;66.23;98371.91;5049737;28;20315;-67
2021/12/02 10:32:09;;;;;;;8.27;1.80;;;;;;;4.61;65.87;98373.50;5049360;28;20047;-69
2021/12/02 10:34:51;;;;;;;6.68;1.55;;;;;;;4.70;63.52;98378.00;5049600;28;20036;-69
2021/12/02 10:37:19;;;;;;;8.98;1.60;;;;;;;4.79;63.70;98379.13;5045356;28;20080;-69
2021/12/02 10:40:01;;;;;;;7.03;1.20;;;;;;;4.96;63.64;98373.47;5047941;28;20025;-70
2021/12/02 10:42:28;;;;;;;8.75;1.67;;;;;;;4.98;62.30;98371.63;5049476;28;20020;-69
2021/12/02 10:44:57;;;;;;;17.35;1.52;;;;;;;4.99;62.98;98370.66;5047940;28;20085;-69
2021/12/02 10:47:23;;;;;;;15.30;2.15;;;;;;;4.99;63.51;98373.25;5048432;28;20029;-68
2021/12/02 10:49:54;;;;;;;8.15;1.75;;;;;;;5.01;63.77;98375.75;5049272;28;20039;-69
2021/12/02 10:52:30;;;;;;;8.52;1.67;;;;;;;4.98;62.96;98375.97;5049084;28;20081;-69
2021/12/02 10:55:07;;;;;;;11.40;1.70;;;;;;;5.12;62.18;98378.38;5048718;28;20081;-68
2021/12/02 10:57:47;;;;;;;12.57;1.95;;;;;;;5.16;62.07;98371.19;5043713;28;20052;-67
2021/12/02 11:00:21;;;;;;;8.65;1.80;;;;;;;5.18;61.98;98371.88;5048020;28;20069;-69
2021/12/02 11:02:49;;;;;;;11.50;1.77;;;;;;;5.09;60.32;98376.84;5049441;28;20098;-69
2021/12/02 11:05:24;;;;;;;10.20;2.00;;;;;;;5.00;60.47;98382.69;5046488;28;20033;-69
2021/12/02 11:08:01;;;;;;;9.75;2.92;;;;;;;5.07;60.91;98381.28;5043141;28;20107;-68
2021/12/02 11:10:33;;;;;;;4.43;1.10;;;;;;;5.10;60.66;98386.28;5045822;28;20228;-70
2021/12/02 11:12:58;;;;;;;11.85;1.90;;;;;;;5.04;59.81;98385.91;5029455;28;20028;-70
2021/12/02 11:15:27;;;;;;;13.15;2.13;;;;;;;4.94;60.41;98385.78;5047877;28;20070;-69
2021/12/02 11:18:04;;;;;;;8.38;1.30;;;;;;;4.92;60.12;98392.84;5048710;28;20032;-69
2021/12/02 11:20:33;;;;;;;12.32;1.40;;;;;;;4.83;59.89;98383.97;5048162;28;20062;-69
2021/12/02 11:23:17;;;;;;;6.85;1.27;;;;;;;4.85;60.78;98394.22;5046131;28;20025;-69
2021/12/02 11:25:59;;;;;;;5.45;1.45;;;;;;;4.85;61.36;98399.41;5045414;28;20390;-68
2021/12/02 11:28:28;;;;;;;11.05;1.88;;;;;;;4.81;60.80;98388.44;5047269;28;20370;-69
2021/12/02 11:30:58;;;;;;;12.95;1.58;;;;;;;4.83;61.06;98394.34;5046095;28;20475;-69
2021/12/02 11:33:31;;;;;;;10.10;1.58;;;;;;;4.84;61.23;98395.19;5045138;28;20040;-70
2021/12/02 11:35:56;;;;;;;8.45;1.40;;;;;;;4.91;61.29;98398.97;5048136;28;20047;-70
2021/12/02 11:38:25;;;;;;;20.27;2.85;;;;;;;4.87;62.04;98396.72;5047146;28;20040;-69
2021/12/02 11:40:59;;;;;;;6.25;1.40;;;;;;;4.85;61.34;98395.06;5048466;28;20501;-70
2021/12/02 11:43:30;;;;;;;13.35;2.05;;;;;;;4.81;61.32;98395.41;5044128;28;20048;-70
2021/12/02 11:45:57;;;;;;;8.88;2.10;;;;;;;4.80;61.42;98391.97;5046858;28;20029;-71
2021/12/02 11:48:26;;;;;;;11.00;1.92;;;;;;;4.88;61.19;98394.00;5046717;28;20166;-67
2021/12/02 11:50:55;;;;;;;14.50;2.47;;;;;;;4.97;62.03;98390.75;5048261;28;20017;-70
2021/12/02 11:53:21;;;;;;;5.40;1.55;;;;;;;4.97;61.41;98390.75;5045915;28;20371;-68
2021/12/02 11:55:49;;;;;;;8.60;1.70;;;;;;;4.96;60.80;98398.63;5048009;28;20029;-70
2021/12/02 11:58:15;;;;;;;8.43;1.93;;;;;;;4.91;60.29;98398.97;5045685;28;20032;-70
2021/12/02 12:00:43;;;;;;;10.27;1.98;;;;;;;4.95;60.80;98397.81;5048421;28;20039;-69